Othello, Washington
Current Conditions -  °F | °C
As of 5:00 PM on Saturday 20 Dec 2014 (Local Time) from KMWH Reporting Station
Overcast Overcast  
Wind Chill: 42°   Ceiling: 400
Heat Index: 42°   Visibility: 10mi
Dew Point: 41°   Wind: 0mph
Humidity: 96%   Direction: NA
Pressure: 29.6"   Gusts: NA
Location:  46.83°N, 119.18°W
Report Text: KMWH 210100Z 00000KT 10SM OVC004 06/05 A2960 RMK AO2 T00560050
Loading
Personal Weather Stations






























Interactive Weather Map New forecast layout! Learn more

10-Day Weather Forecast

Advertisements
Track Severe Weather on mobile